sensor_id;sensor_type;location;lat;lon;timestamp;P1;durP1;ratioP1;P2;durP2;ratioP2
22967;SDS011;11650;48.106;-1.696;2023-07-29T00:01:31;1.40;;;1.30;;
22967;SDS011;11650;48.106;-1.696;2023-07-29T00:03:58;1.47;;;1.30;;
22967;SDS011;11650;48.106;-1.696;2023-07-29T00:06:24;3.17;;;1.50;;
22967;SDS011;11650;48.106;-1.696;2023-07-29T00:08:50;3.60;;;1.43;;
22967;SDS011;11650;48.106;-1.696;2023-07-29T00:11:15;2.40;;;1.40;;
22967;SDS011;11650;48.106;-1.696;2023-07-29T00:13:41;2.90;;;1.47;;
22967;SDS011;11650;48.106;-1.696;2023-07-29T00:16:06;3.83;;;1.40;;
22967;SDS011;11650;48.106;-1.696;2023-07-29T00:18:32;3.83;;;1.47;;
22967;SDS011;11650;48.106;-1.696;2023-07-29T00:20:58;4.17;;;1.70;;
22967;SDS011;11650;48.106;-1.696;2023-07-29T00:23:23;3.27;;;1.23;;
22967;SDS011;11650;48.106;-1.696;2023-07-29T00:25:49;3.57;;;1.50;;
22967;SDS011;11650;48.106;-1.696;2023-07-29T00:28:15;2.60;;;1.53;;
22967;SDS011;11650;48.106;-1.696;2023-07-29T00:30:41;2.27;;;1.50;;
22967;SDS011;11650;48.106;-1.696;2023-07-29T00:33:07;3.60;;;1.30;;
22967;SDS011;11650;48.106;-1.696;2023-07-29T00:35:32;2.20;;;1.27;;
22967;SDS011;11650;48.106;-1.696;2023-07-29T00:37:59;1.40;;;1.30;;
22967;SDS011;11650;48.106;-1.696;2023-07-29T00:40:24;3.37;;;1.70;;
22967;SDS011;11650;48.106;-1.696;2023-07-29T00:42:53;2.50;;;1.50;;
22967;SDS011;11650;48.106;-1.696;2023-07-29T00:45:19;3.27;;;1.80;;
22967;SDS011;11650;48.106;-1.696;2023-07-29T00:47:44;4.23;;;1.57;;
22967;SDS011;11650;48.106;-1.696;2023-07-29T00:50:11;3.40;;;1.43;;
22967;SDS011;11650;48.106;-1.696;2023-07-29T00:52:39;1.77;;;1.37;;
22967;SDS011;11650;48.106;-1.696;2023-07-29T00:55:05;3.00;;;1.50;;
22967;SDS011;11650;48.106;-1.696;2023-07-29T00:57:32;1.80;;;1.40;;
22967;SDS011;11650;48.106;-1.696;2023-07-29T00:59:59;2.87;;;1.30;;
22967;SDS011;11650;48.106;-1.696;2023-07-29T01:02:25;1.90;;;1.40;;
22967;SDS011;11650;48.106;-1.696;2023-07-29T01:04:55;2.00;;;1.30;;
22967;SDS011;11650;48.106;-1.696;2023-07-29T01:18:45;4.20;;;2.00;;
22967;SDS011;11650;48.106;-1.696;2023-07-29T01:21:15;3.83;;;1.70;;
22967;SDS011;11650;48.106;-1.696;2023-07-29T01:23:41;5.83;;;2.00;;
22967;SDS011;11650;48.106;-1.696;2023-07-29T01:26:07;4.03;;;1.33;;
22967;SDS011;11650;48.106;-1.696;2023-07-29T01:28:33;2.67;;;1.40;;
22967;SDS011;11650;48.106;-1.696;2023-07-29T01:31:23;4.43;;;1.73;;
22967;SDS011;11650;48.106;-1.696;2023-07-29T01:34:10;6.43;;;1.47;;
22967;SDS011;11650;48.106;-1.696;2023-07-29T01:37:11;2.87;;;1.33;;
22967;SDS011;11650;48.106;-1.696;2023-07-29T01:39:41;2.67;;;1.40;;
22967;SDS011;11650;48.106;-1.696;2023-07-29T01:42:10;5.00;;;1.50;;
22967;SDS011;11650;48.106;-1.696;2023-07-29T01:44:36;6.67;;;2.00;;
22967;SDS011;11650;48.106;-1.696;2023-07-29T01:47:02;5.17;;;1.63;;
22967;SDS011;11650;48.106;-1.696;2023-07-29T01:49:28;3.10;;;1.60;;
22967;SDS011;11650;48.106;-1.696;2023-07-29T01:51:53;4.77;;;1.60;;
22967;SDS011;11650;48.106;-1.696;2023-07-29T01:54:19;3.33;;;1.60;;
22967;SDS011;11650;48.106;-1.696;2023-07-29T01:56:44;5.17;;;1.60;;
22967;SDS011;11650;48.106;-1.696;2023-07-29T01:59:10;2.77;;;1.70;;
22967;SDS011;11650;48.106;-1.696;2023-07-29T02:01:36;6.13;;;1.43;;
22967;SDS011;11650;48.106;-1.696;2023-07-29T02:04:02;4.80;;;1.70;;
22967;SDS011;11650;48.106;-1.696;2023-07-29T02:06:28;4.67;;;1.90;;
22967;SDS011;11650;48.106;-1.696;2023-07-29T02:08:53;2.70;;;1.60;;
22967;SDS011;11650;48.106;-1.696;2023-07-29T02:11:19;3.30;;;1.77;;
22967;SDS011;11650;48.106;-1.696;2023-07-29T02:13:52;8.23;;;1.60;;
22967;SDS011;11650;48.106;-1.696;2023-07-29T02:16:18;4.07;;;1.70;;
22967;SDS011;11650;48.106;-1.696;2023-07-29T02:18:43;4.07;;;1.70;;
22967;SDS011;11650;48.106;-1.696;2023-07-29T02:21:09;9.00;;;1.93;;
22967;SDS011;11650;48.106;-1.696;2023-07-29T02:23:34;6.50;;;1.70;;
22967;SDS011;11650;48.106;-1.696;2023-07-29T02:26:00;4.10;;;1.73;;
22967;SDS011;11650;48.106;-1.696;2023-07-29T02:28:26;2.83;;;1.60;;
22967;SDS011;11650;48.106;-1.696;2023-07-29T02:31:08;5.20;;;1.73;;
22967;SDS011;11650;48.106;-1.696;2023-07-29T02:33:37;6.10;;;1.90;;
22967;SDS011;11650;48.106;-1.696;2023-07-29T02:36:02;5.87;;;2.13;;
22967;SDS011;11650;48.106;-1.696;2023-07-29T02:38:28;6.20;;;2.00;;
22967;SDS011;11650;48.106;-1.696;2023-07-29T02:40:54;4.80;;;2.33;;
22967;SDS011;11650;48.106;-1.696;2023-07-29T02:43:19;4.93;;;2.00;;
22967;SDS011;11650;48.106;-1.696;2023-07-29T02:45:45;7.03;;;2.40;;
22967;SDS011;11650;48.106;-1.696;2023-07-29T02:48:10;6.00;;;2.20;;
22967;SDS011;11650;48.106;-1.696;2023-07-29T02:50:36;5.80;;;1.90;;
22967;SDS011;11650;48.106;-1.696;2023-07-29T02:53:02;5.83;;;2.23;;
22967;SDS011;11650;48.106;-1.696;2023-07-29T02:55:28;3.23;;;1.47;;
22967;SDS011;11650;48.106;-1.696;2023-07-29T02:57:53;5.63;;;1.73;;
22967;SDS011;11650;48.106;-1.696;2023-07-29T03:00:19;4.17;;;1.97;;
22967;SDS011;11650;48.106;-1.696;2023-07-29T03:02:45;5.57;;;1.70;;
22967;SDS011;11650;48.106;-1.696;2023-07-29T03:05:10;6.00;;;1.80;;
22967;SDS011;11650;48.106;-1.696;2023-07-29T03:07:36;4.53;;;2.00;;
22967;SDS011;11650;48.106;-1.696;2023-07-29T03:10:02;8.37;;;2.43;;
22967;SDS011;11650;48.106;-1.696;2023-07-29T03:12:27;7.07;;;2.10;;
22967;SDS011;11650;48.106;-1.696;2023-07-29T03:14:53;5.50;;;2.20;;
22967;SDS011;11650;48.106;-1.696;2023-07-29T03:17:18;6.20;;;2.30;;
22967;SDS011;11650;48.106;-1.696;2023-07-29T03:19:44;8.90;;;2.07;;
22967;SDS011;11650;48.106;-1.696;2023-07-29T03:22:10;6.90;;;2.03;;
22967;SDS011;11650;48.106;-1.696;2023-07-29T03:24:35;5.53;;;2.00;;
22967;SDS011;11650;48.106;-1.696;2023-07-29T03:27:01;4.00;;;1.87;;
22967;SDS011;11650;48.106;-1.696;2023-07-29T03:29:26;6.37;;;2.10;;
22967;SDS011;11650;48.106;-1.696;2023-07-29T03:31:52;6.73;;;2.00;;
22967;SDS011;11650;48.106;-1.696;2023-07-29T03:34:18;4.13;;;2.03;;
22967;SDS011;11650;48.106;-1.696;2023-07-29T03:36:44;7.10;;;2.03;;
22967;SDS011;11650;48.106;-1.696;2023-07-29T03:39:12;8.77;;;2.50;;
22967;SDS011;11650;48.106;-1.696;2023-07-29T03:41:39;6.13;;;2.47;;
22967;SDS011;11650;48.106;-1.696;2023-07-29T03:44:04;5.67;;;2.37;;
22967;SDS011;11650;48.106;-1.696;2023-07-29T03:46:30;5.60;;;2.27;;
22967;SDS011;11650;48.106;-1.696;2023-07-29T03:48:56;6.37;;;2.40;;
22967;SDS011;11650;48.106;-1.696;2023-07-29T03:51:22;5.27;;;2.23;;
22967;SDS011;11650;48.106;-1.696;2023-07-29T03:53:49;5.60;;;2.40;;
22967;SDS011;11650;48.106;-1.696;2023-07-29T03:56:15;6.13;;;2.50;;
22967;SDS011;11650;48.106;-1.696;2023-07-29T03:58:41;5.43;;;2.53;;
22967;SDS011;11650;48.106;-1.696;2023-07-29T04:01:06;6.27;;;1.93;;
22967;SDS011;11650;48.106;-1.696;2023-07-29T04:03:33;5.53;;;2.63;;
22967;SDS011;11650;48.106;-1.696;2023-07-29T04:05:59;6.23;;;2.57;;
22967;SDS011;11650;48.106;-1.696;2023-07-29T04:08:25;7.17;;;2.60;;
22967;SDS011;11650;48.106;-1.696;2023-07-29T04:10:51;7.00;;;2.37;;
22967;SDS011;11650;48.106;-1.696;2023-07-29T04:13:17;5.97;;;2.20;;
22967;SDS011;11650;48.106;-1.696;2023-07-29T04:15:42;4.50;;;2.10;;
22967;SDS011;11650;48.106;-1.696;2023-07-29T04:18:08;5.03;;;1.97;;
22967;SDS011;11650;48.106;-1.696;2023-07-29T04:20:33;3.40;;;2.00;;
22967;SDS011;11650;48.106;-1.696;2023-07-29T04:22:59;5.77;;;2.37;;
22967;SDS011;11650;48.106;-1.696;2023-07-29T04:25:25;4.00;;;2.07;;
22967;SDS011;11650;48.106;-1.696;2023-07-29T04:27:50;5.20;;;2.37;;
22967;SDS011;11650;48.106;-1.696;2023-07-29T04:30:16;4.80;;;2.23;;
22967;SDS011;11650;48.106;-1.696;2023-07-29T04:32:42;3.63;;;1.93;;
22967;SDS011;11650;48.106;-1.696;2023-07-29T04:35:08;2.80;;;1.90;;
22967;SDS011;11650;48.106;-1.696;2023-07-29T04:37:34;4.10;;;1.73;;
22967;SDS011;11650;48.106;-1.696;2023-07-29T04:39:59;3.30;;;1.50;;
22967;SDS011;11650;48.106;-1.696;2023-07-29T04:42:25;5.67;;;1.87;;
22967;SDS011;11650;48.106;-1.696;2023-07-29T04:44:50;2.33;;;1.70;;
22967;SDS011;11650;48.106;-1.696;2023-07-29T04:47:16;5.07;;;1.70;;
22967;SDS011;11650;48.106;-1.696;2023-07-29T04:49:42;3.77;;;1.80;;
22967;SDS011;11650;48.106;-1.696;2023-07-29T04:52:07;4.00;;;2.03;;
22967;SDS011;11650;48.106;-1.696;2023-07-29T04:54:33;4.23;;;1.70;;
22967;SDS011;11650;48.106;-1.696;2023-07-29T04:56:58;3.80;;;1.90;;
22967;SDS011;11650;48.106;-1.696;2023-07-29T04:59:24;3.07;;;1.90;;
22967;SDS011;11650;48.106;-1.696;2023-07-29T05:01:50;3.00;;;1.90;;
22967;SDS011;11650;48.106;-1.696;2023-07-29T05:04:16;3.23;;;1.80;;
22967;SDS011;11650;48.106;-1.696;2023-07-29T05:06:41;2.77;;;1.80;;
22967;SDS011;11650;48.106;-1.696;2023-07-29T05:09:18;3.50;;;1.87;;
22967;SDS011;11650;48.106;-1.696;2023-07-29T05:11:45;5.77;;;2.10;;
22967;SDS011;11650;48.106;-1.696;2023-07-29T05:14:12;3.20;;;1.80;;
22967;SDS011;11650;48.106;-1.696;2023-07-29T05:16:39;3.40;;;1.77;;
22967;SDS011;11650;48.106;-1.696;2023-07-29T05:19:04;2.47;;;1.60;;
22967;SDS011;11650;48.106;-1.696;2023-07-29T05:21:30;3.23;;;1.43;;
22967;SDS011;11650;48.106;-1.696;2023-07-29T05:23:56;3.53;;;1.70;;
22967;SDS011;11650;48.106;-1.696;2023-07-29T05:26:22;3.00;;;1.37;;
22967;SDS011;11650;48.106;-1.696;2023-07-29T05:28:47;3.57;;;1.53;;
22967;SDS011;11650;48.106;-1.696;2023-07-29T05:31:13;3.07;;;1.30;;
22967;SDS011;11650;48.106;-1.696;2023-07-29T05:33:39;1.73;;;1.10;;
22967;SDS011;11650;48.106;-1.696;2023-07-29T05:36:04;1.10;;;1.00;;
22967;SDS011;11650;48.106;-1.696;2023-07-29T05:38:30;1.63;;;1.07;;
22967;SDS011;11650;48.106;-1.696;2023-07-29T05:40:56;3.03;;;1.00;;
22967;SDS011;11650;48.106;-1.696;2023-07-29T05:43:23;1.17;;;1.00;;
22967;SDS011;11650;48.106;-1.696;2023-07-29T05:45:49;2.33;;;0.90;;
22967;SDS011;11650;48.106;-1.696;2023-07-29T05:48:16;2.20;;;1.10;;
22967;SDS011;11650;48.106;-1.696;2023-07-29T05:50:41;2.80;;;1.10;;
22967;SDS011;11650;48.106;-1.696;2023-07-29T05:53:07;1.67;;;0.90;;
22967;SDS011;11650;48.106;-1.696;2023-07-29T05:55:33;1.93;;;1.10;;
22967;SDS011;11650;48.106;-1.696;2023-07-29T05:57:59;2.87;;;1.07;;
22967;SDS011;11650;48.106;-1.696;2023-07-29T06:00:24;1.53;;;1.10;;
22967;SDS011;11650;48.106;-1.696;2023-07-29T06:02:50;3.97;;;1.13;;
22967;SDS011;11650;48.106;-1.696;2023-07-29T06:05:15;1.37;;;0.93;;
22967;SDS011;11650;48.106;-1.696;2023-07-29T06:07:41;2.27;;;1.10;;
22967;SDS011;11650;48.106;-1.696;2023-07-29T06:10:10;2.13;;;1.00;;
22967;SDS011;11650;48.106;-1.696;2023-07-29T06:12:37;1.57;;;1.13;;
22967;SDS011;11650;48.106;-1.696;2023-07-29T06:15:03;2.17;;;1.20;;
22967;SDS011;11650;48.106;-1.696;2023-07-29T06:17:30;2.83;;;1.10;;
22967;SDS011;11650;48.106;-1.696;2023-07-29T06:19:55;2.77;;;1.30;;
22967;SDS011;11650;48.106;-1.696;2023-07-29T06:22:21;1.73;;;1.20;;
22967;SDS011;11650;48.106;-1.696;2023-07-29T06:24:46;2.17;;;1.00;;
22967;SDS011;11650;48.106;-1.696;2023-07-29T06:27:12;3.40;;;1.30;;
22967;SDS011;11650;48.106;-1.696;2023-07-29T06:29:38;2.30;;;1.13;;
22967;SDS011;11650;48.106;-1.696;2023-07-29T06:32:04;2.47;;;1.23;;
22967;SDS011;11650;48.106;-1.696;2023-07-29T06:34:30;3.23;;;1.23;;
22967;SDS011;11650;48.106;-1.696;2023-07-29T06:36:55;3.13;;;1.40;;
22967;SDS011;11650;48.106;-1.696;2023-07-29T06:39:21;3.50;;;1.20;;
22967;SDS011;11650;48.106;-1.696;2023-07-29T06:41:46;4.67;;;1.73;;
22967;SDS011;11650;48.106;-1.696;2023-07-29T06:44:12;1.60;;;1.20;;
22967;SDS011;11650;48.106;-1.696;2023-07-29T06:46:38;2.43;;;1.37;;
22967;SDS011;11650;48.106;-1.696;2023-07-29T06:49:04;1.93;;;1.30;;
22967;SDS011;11650;48.106;-1.696;2023-07-29T06:51:30;1.80;;;1.17;;
22967;SDS011;11650;48.106;-1.696;2023-07-29T06:53:59;3.10;;;1.40;;
22967;SDS011;11650;48.106;-1.696;2023-07-29T06:56:25;1.33;;;1.10;;
22967;SDS011;11650;48.106;-1.696;2023-07-29T06:58:51;2.03;;;1.17;;
22967;SDS011;11650;48.106;-1.696;2023-07-29T07:01:16;2.67;;;1.20;;
22967;SDS011;11650;48.106;-1.696;2023-07-29T07:03:42;3.20;;;1.03;;
22967;SDS011;11650;48.106;-1.696;2023-07-29T07:06:08;2.40;;;1.23;;
22967;SDS011;11650;48.106;-1.696;2023-07-29T07:08:33;1.63;;;1.00;;
22967;SDS011;11650;48.106;-1.696;2023-07-29T07:10:59;2.97;;;1.00;;
22967;SDS011;11650;48.106;-1.696;2023-07-29T07:13:25;1.50;;;1.23;;
22967;SDS011;11650;48.106;-1.696;2023-07-29T07:15:50;3.33;;;1.27;;
22967;SDS011;11650;48.106;-1.696;2023-07-29T07:18:18;1.90;;;1.20;;
22967;SDS011;11650;48.106;-1.696;2023-07-29T07:20:48;1.40;;;1.10;;
22967;SDS011;11650;48.106;-1.696;2023-07-29T07:23:14;2.43;;;1.00;;
22967;SDS011;11650;48.106;-1.696;2023-07-29T07:25:40;3.90;;;1.30;;
22967;SDS011;11650;48.106;-1.696;2023-07-29T07:28:07;2.10;;;1.30;;
22967;SDS011;11650;48.106;-1.696;2023-07-29T07:30:34;5.67;;;1.20;;
22967;SDS011;11650;48.106;-1.696;2023-07-29T07:33:00;3.33;;;1.30;;
22967;SDS011;11650;48.106;-1.696;2023-07-29T07:35:26;2.17;;;1.20;;
22967;SDS011;11650;48.106;-1.696;2023-07-29T07:37:52;3.50;;;1.10;;
22967;SDS011;11650;48.106;-1.696;2023-07-29T07:40:18;2.53;;;1.40;;
22967;SDS011;11650;48.106;-1.696;2023-07-29T07:42:43;3.33;;;1.50;;
22967;SDS011;11650;48.106;-1.696;2023-07-29T07:45:09;4.57;;;1.40;;
22967;SDS011;11650;48.106;-1.696;2023-07-29T07:47:34;2.90;;;1.30;;
22967;SDS011;11650;48.106;-1.696;2023-07-29T07:50:00;2.00;;;1.30;;
22967;SDS011;11650;48.106;-1.696;2023-07-29T07:52:26;6.70;;;1.60;;
22967;SDS011;11650;48.106;-1.696;2023-07-29T07:54:54;3.40;;;1.77;;
22967;SDS011;11650;48.106;-1.696;2023-07-29T07:57:21;3.10;;;1.10;;
22967;SDS011;11650;48.106;-1.696;2023-07-29T07:59:47;5.60;;;1.40;;
22967;SDS011;11650;48.106;-1.696;2023-07-29T08:02:12;3.63;;;1.30;;
22967;SDS011;11650;48.106;-1.696;2023-07-29T08:04:38;2.70;;;1.37;;
22967;SDS011;11650;48.106;-1.696;2023-07-29T08:07:04;4.20;;;1.40;;
22967;SDS011;11650;48.106;-1.696;2023-07-29T08:09:30;3.17;;;1.20;;
22967;SDS011;11650;48.106;-1.696;2023-07-29T08:11:55;1.80;;;1.20;;
22967;SDS011;11650;48.106;-1.696;2023-07-29T08:14:21;2.93;;;1.50;;
22967;SDS011;11650;48.106;-1.696;2023-07-29T08:16:47;2.63;;;1.40;;
22967;SDS011;11650;48.106;-1.696;2023-07-29T08:19:12;4.30;;;1.47;;
22967;SDS011;11650;48.106;-1.696;2023-07-29T08:21:38;3.37;;;1.20;;
22967;SDS011;11650;48.106;-1.696;2023-07-29T08:24:04;5.07;;;1.50;;
22967;SDS011;11650;48.106;-1.696;2023-07-29T08:26:29;2.70;;;1.30;;
22967;SDS011;11650;48.106;-1.696;2023-07-29T08:28:55;2.87;;;1.20;;
22967;SDS011;11650;48.106;-1.696;2023-07-29T08:31:21;3.13;;;1.50;;
22967;SDS011;11650;48.106;-1.696;2023-07-29T08:33:46;3.90;;;1.80;;
22967;SDS011;11650;48.106;-1.696;2023-07-29T08:36:12;2.73;;;1.60;;
22967;SDS011;11650;48.106;-1.696;2023-07-29T08:38:37;2.17;;;1.40;;
22967;SDS011;11650;48.106;-1.696;2023-07-29T08:41:13;2.63;;;1.37;;
22967;SDS011;11650;48.106;-1.696;2023-07-29T08:44:29;5.50;;;1.70;;
22967;SDS011;11650;48.106;-1.696;2023-07-29T08:46:50;3.73;;;1.40;;
22967;SDS011;11650;48.106;-1.696;2023-07-29T08:49:16;2.03;;;1.50;;
22967;SDS011;11650;48.106;-1.696;2023-07-29T08:51:44;3.40;;;1.83;;
22967;SDS011;11650;48.106;-1.696;2023-07-29T08:54:14;3.10;;;1.50;;
22967;SDS011;11650;48.106;-1.696;2023-07-29T08:56:40;3.60;;;1.60;;
22967;SDS011;11650;48.106;-1.696;2023-07-29T08:59:07;4.30;;;1.50;;
22967;SDS011;11650;48.106;-1.696;2023-07-29T09:01:36;3.27;;;1.60;;
22967;SDS011;11650;48.106;-1.696;2023-07-29T09:04:05;3.07;;;1.57;;
22967;SDS011;11650;48.106;-1.696;2023-07-29T09:06:31;4.77;;;1.40;;
22967;SDS011;11650;48.106;-1.696;2023-07-29T09:08:58;3.57;;;1.47;;
22967;SDS011;11650;48.106;-1.696;2023-07-29T09:11:24;5.60;;;1.80;;
22967;SDS011;11650;48.106;-1.696;2023-07-29T09:13:50;5.77;;;1.80;;
22967;SDS011;11650;48.106;-1.696;2023-07-29T09:16:16;5.00;;;2.20;;
22967;SDS011;11650;48.106;-1.696;2023-07-29T09:18:41;2.97;;;1.60;;
22967;SDS011;11650;48.106;-1.696;2023-07-29T09:21:07;3.40;;;1.50;;
22967;SDS011;11650;48.106;-1.696;2023-07-29T09:23:43;4.67;;;1.63;;
22967;SDS011;11650;48.106;-1.696;2023-07-29T09:26:09;4.93;;;1.60;;
22967;SDS011;11650;48.106;-1.696;2023-07-29T09:28:36;2.90;;;1.50;;
22967;SDS011;11650;48.106;-1.696;2023-07-29T09:31:03;5.40;;;1.70;;
22967;SDS011;11650;48.106;-1.696;2023-07-29T09:33:29;3.17;;;1.80;;
22967;SDS011;11650;48.106;-1.696;2023-07-29T09:36:00;5.03;;;1.63;;
22967;SDS011;11650;48.106;-1.696;2023-07-29T09:38:27;2.53;;;1.60;;
22967;SDS011;11650;48.106;-1.696;2023-07-29T09:40:54;4.00;;;1.50;;
22967;SDS011;11650;48.106;-1.696;2023-07-29T09:43:24;3.17;;;1.37;;
22967;SDS011;11650;48.106;-1.696;2023-07-29T09:45:54;4.80;;;1.40;;
22967;SDS011;11650;48.106;-1.696;2023-07-29T09:48:22;2.53;;;1.50;;
22967;SDS011;11650;48.106;-1.696;2023-07-29T09:50:48;3.13;;;1.70;;
22967;SDS011;11650;48.106;-1.696;2023-07-29T09:53:13;3.50;;;1.30;;
22967;SDS011;11650;48.106;-1.696;2023-07-29T09:55:39;3.97;;;1.30;;
22967;SDS011;11650;48.106;-1.696;2023-07-29T09:58:10;4.10;;;1.50;;
22967;SDS011;11650;48.106;-1.696;2023-07-29T10:00:36;3.40;;;1.43;;
22967;SDS011;11650;48.106;-1.696;2023-07-29T10:03:04;3.90;;;1.63;;
22967;SDS011;11650;48.106;-1.696;2023-07-29T10:05:30;3.00;;;1.50;;
22967;SDS011;11650;48.106;-1.696;2023-07-29T10:07:56;3.43;;;1.43;;
22967;SDS011;11650;48.106;-1.696;2023-07-29T10:10:22;3.10;;;1.40;;
22967;SDS011;11650;48.106;-1.696;2023-07-29T10:12:48;2.60;;;1.30;;
22967;SDS011;11650;48.106;-1.696;2023-07-29T10:15:14;3.93;;;1.60;;
22967;SDS011;11650;48.106;-1.696;2023-07-29T10:17:40;2.37;;;1.40;;
22967;SDS011;11650;48.106;-1.696;2023-07-29T10:20:07;3.17;;;1.40;;
22967;SDS011;11650;48.106;-1.696;2023-07-29T10:22:38;3.20;;;1.50;;
22967;SDS011;11650;48.106;-1.696;2023-07-29T10:25:09;3.23;;;1.40;;
22967;SDS011;11650;48.106;-1.696;2023-07-29T10:30:10;3.27;;;1.40;;
22967;SDS011;11650;48.106;-1.696;2023-07-29T10:32:37;3.30;;;1.37;;
22967;SDS011;11650;48.106;-1.696;2023-07-29T10:35:04;2.50;;;1.27;;
22967;SDS011;11650;48.106;-1.696;2023-07-29T10:37:30;2.10;;;1.37;;
22967;SDS011;11650;48.106;-1.696;2023-07-29T10:39:56;2.13;;;1.20;;
22967;SDS011;11650;48.106;-1.696;2023-07-29T10:42:21;3.30;;;1.20;;
22967;SDS011;11650;48.106;-1.696;2023-07-29T10:44:51;3.60;;;1.40;;
22967;SDS011;11650;48.106;-1.696;2023-07-29T10:49:43;4.17;;;1.27;;
22967;SDS011;11650;48.106;-1.696;2023-07-29T10:52:16;3.33;;;1.60;;
22967;SDS011;11650;48.106;-1.696;2023-07-29T10:54:54;3.07;;;1.70;;
22967;SDS011;11650;48.106;-1.696;2023-07-29T10:57:30;3.70;;;1.67;;
22967;SDS011;11650;48.106;-1.696;2023-07-29T10:59:57;3.87;;;1.60;;
22967;SDS011;11650;48.106;-1.696;2023-07-29T11:02:34;5.27;;;1.90;;
22967;SDS011;11650;48.106;-1.696;2023-07-29T11:05:05;4.97;;;1.70;;
22967;SDS011;11650;48.106;-1.696;2023-07-29T11:07:44;4.73;;;1.57;;
22967;SDS011;11650;48.106;-1.696;2023-07-29T11:10:11;2.07;;;1.20;;
22967;SDS011;11650;48.106;-1.696;2023-07-29T11:12:47;4.03;;;1.60;;
22967;SDS011;11650;48.106;-1.696;2023-07-29T11:17:52;2.70;;;1.30;;
22967;SDS011;11650;48.106;-1.696;2023-07-29T11:20:38;5.73;;;1.80;;
22967;SDS011;11650;48.106;-1.696;2023-07-29T11:23:04;2.70;;;1.27;;
22967;SDS011;11650;48.106;-1.696;2023-07-29T11:25:30;3.43;;;1.30;;
22967;SDS011;11650;48.106;-1.696;2023-07-29T11:27:59;2.43;;;1.20;;
22967;SDS011;11650;48.106;-1.696;2023-07-29T11:30:25;2.70;;;1.40;;
22967;SDS011;11650;48.106;-1.696;2023-07-29T11:32:52;2.97;;;1.50;;
22967;SDS011;11650;48.106;-1.696;2023-07-29T11:35:19;3.17;;;1.70;;
22967;SDS011;11650;48.106;-1.696;2023-07-29T11:37:46;4.30;;;1.63;;
22967;SDS011;11650;48.106;-1.696;2023-07-29T11:40:16;3.33;;;1.40;;
22967;SDS011;11650;48.106;-1.696;2023-07-29T11:42:46;5.23;;;1.00;;
22967;SDS011;11650;48.106;-1.696;2023-07-29T11:45:15;2.30;;;1.30;;
22967;SDS011;11650;48.106;-1.696;2023-07-29T11:47:41;3.03;;;1.20;;
22967;SDS011;11650;48.106;-1.696;2023-07-29T11:50:08;5.00;;;1.85;;
22967;SDS011;11650;48.106;-1.696;2023-07-29T11:52:38;2.37;;;1.40;;
22967;SDS011;11650;48.106;-1.696;2023-07-29T11:55:05;3.20;;;1.40;;
22967;SDS011;11650;48.106;-1.696;2023-07-29T11:57:35;3.47;;;1.20;;
22967;SDS011;11650;48.106;-1.696;2023-07-29T12:00:03;4.10;;;1.60;;
22967;SDS011;11650;48.106;-1.696;2023-07-29T12:02:35;1.92;;;1.15;;
22967;SDS011;11650;48.106;-1.696;2023-07-29T12:05:04;2.50;;;1.33;;
22967;SDS011;11650;48.106;-1.696;2023-07-29T12:07:30;2.35;;;1.40;;
22967;SDS011;11650;48.106;-1.696;2023-07-29T12:09:58;4.25;;;1.63;;
22967;SDS011;11650;48.106;-1.696;2023-07-29T12:12:24;4.83;;;1.40;;
22967;SDS011;11650;48.106;-1.696;2023-07-29T12:14:50;4.93;;;1.30;;
22967;SDS011;11650;48.106;-1.696;2023-07-29T12:17:15;4.45;;;1.50;;
22967;SDS011;11650;48.106;-1.696;2023-07-29T12:19:41;3.17;;;1.40;;
22967;SDS011;11650;48.106;-1.696;2023-07-29T12:22:08;2.13;;;1.30;;
22967;SDS011;11650;48.106;-1.696;2023-07-29T12:24:36;3.47;;;1.37;;
22967;SDS011;11650;48.106;-1.696;2023-07-29T12:27:04;3.40;;;1.33;;
22967;SDS011;11650;48.106;-1.696;2023-07-29T12:29:30;2.85;;;1.20;;
22967;SDS011;11650;48.106;-1.696;2023-07-29T12:31:59;3.47;;;1.50;;
22967;SDS011;11650;48.106;-1.696;2023-07-29T12:34:29;4.03;;;1.37;;
22967;SDS011;11650;48.106;-1.696;2023-07-29T12:36:56;2.38;;;1.38;;
22967;SDS011;11650;48.106;-1.696;2023-07-29T12:39:27;3.95;;;1.40;;
22967;SDS011;11650;48.106;-1.696;2023-07-29T12:41:54;2.13;;;1.40;;
22967;SDS011;11650;48.106;-1.696;2023-07-29T12:44:24;2.70;;;1.60;;
22967;SDS011;11650;48.106;-1.696;2023-07-29T12:46:51;3.93;;;1.60;;
22967;SDS011;11650;48.106;-1.696;2023-07-29T12:49:17;1.88;;;1.38;;
22967;SDS011;11650;48.106;-1.696;2023-07-29T12:51:43;3.27;;;1.50;;
22967;SDS011;11650;48.106;-1.696;2023-07-29T12:54:09;3.77;;;1.17;;
22967;SDS011;11650;48.106;-1.696;2023-07-29T12:56:35;3.43;;;1.30;;
22967;SDS011;11650;48.106;-1.696;2023-07-29T12:59:01;4.72;;;1.30;;
22967;SDS011;11650;48.106;-1.696;2023-07-29T13:01:27;1.80;;;1.20;;
22967;SDS011;11650;48.106;-1.696;2023-07-29T13:03:53;2.73;;;1.40;;
22967;SDS011;11650;48.106;-1.696;2023-07-29T13:06:19;4.03;;;1.40;;
22967;SDS011;11650;48.106;-1.696;2023-07-29T13:08:46;6.47;;;1.43;;
22967;SDS011;11650;48.106;-1.696;2023-07-29T13:11:12;2.77;;;1.37;;
22967;SDS011;11650;48.106;-1.696;2023-07-29T13:13:39;5.37;;;1.23;;
22967;SDS011;11650;48.106;-1.696;2023-07-29T13:16:04;3.43;;;1.43;;
22967;SDS011;11650;48.106;-1.696;2023-07-29T13:18:31;2.20;;;1.20;;
22967;SDS011;11650;48.106;-1.696;2023-07-29T13:20:57;2.80;;;1.55;;
22967;SDS011;11650;48.106;-1.696;2023-07-29T13:23:22;3.57;;;1.30;;
22967;SDS011;11650;48.106;-1.696;2023-07-29T13:25:49;2.28;;;1.35;;
22967;SDS011;11650;48.106;-1.696;2023-07-29T13:28:15;2.45;;;1.25;;
22967;SDS011;11650;48.106;-1.696;2023-07-29T13:30:41;4.47;;;1.30;;
22967;SDS011;11650;48.106;-1.696;2023-07-29T13:33:07;3.42;;;1.45;;
22967;SDS011;11650;48.106;-1.696;2023-07-29T13:35:33;2.20;;;1.20;;
22967;SDS011;11650;48.106;-1.696;2023-07-29T13:37:59;4.03;;;1.48;;
22967;SDS011;11650;48.106;-1.696;2023-07-29T13:40:26;3.27;;;1.40;;
22967;SDS011;11650;48.106;-1.696;2023-07-29T13:42:52;2.03;;;1.20;;
22967;SDS011;11650;48.106;-1.696;2023-07-29T13:45:18;4.13;;;1.40;;
22967;SDS011;11650;48.106;-1.696;2023-07-29T13:47:44;5.07;;;1.47;;
22967;SDS011;11650;48.106;-1.696;2023-07-29T13:50:09;2.80;;;1.48;;
22967;SDS011;11650;48.106;-1.696;2023-07-29T13:52:36;2.50;;;1.23;;
22967;SDS011;11650;48.106;-1.696;2023-07-29T13:55:05;3.53;;;1.35;;
22967;SDS011;11650;48.106;-1.696;2023-07-29T13:57:31;2.97;;;0.98;;
22967;SDS011;11650;48.106;-1.696;2023-07-29T13:59:57;4.38;;;1.40;;
22967;SDS011;11650;48.106;-1.696;2023-07-29T14:02:23;4.10;;;1.33;;
22967;SDS011;11650;48.106;-1.696;2023-07-29T14:04:51;1.52;;;1.13;;
22967;SDS011;11650;48.106;-1.696;2023-07-29T14:07:17;2.88;;;1.40;;
22967;SDS011;11650;48.106;-1.696;2023-07-29T14:09:42;2.55;;;1.20;;
22967;SDS011;11650;48.106;-1.696;2023-07-29T14:12:08;4.78;;;1.40;;
22967;SDS011;11650;48.106;-1.696;2023-07-29T14:14:37;3.67;;;1.45;;
22967;SDS011;11650;48.106;-1.696;2023-07-29T14:17:03;4.43;;;1.30;;
22967;SDS011;11650;48.106;-1.696;2023-07-29T14:19:29;3.63;;;1.25;;
22967;SDS011;11650;48.106;-1.696;2023-07-29T14:21:56;4.13;;;1.60;;
22967;SDS011;11650;48.106;-1.696;2023-07-29T14:24:21;4.05;;;1.50;;
22967;SDS011;11650;48.106;-1.696;2023-07-29T14:26:47;4.47;;;1.35;;
22967;SDS011;11650;48.106;-1.696;2023-07-29T14:29:13;4.15;;;1.27;;
22967;SDS011;11650;48.106;-1.696;2023-07-29T14:31:39;3.78;;;1.40;;
22967;SDS011;11650;48.106;-1.696;2023-07-29T14:34:04;4.20;;;1.40;;
22967;SDS011;11650;48.106;-1.696;2023-07-29T14:36:30;3.53;;;1.52;;
22967;SDS011;11650;48.106;-1.696;2023-07-29T14:38:56;3.75;;;1.30;;
22967;SDS011;11650;48.106;-1.696;2023-07-29T14:41:21;5.28;;;1.50;;
22967;SDS011;11650;48.106;-1.696;2023-07-29T14:43:47;2.67;;;1.25;;
22967;SDS011;11650;48.106;-1.696;2023-07-29T14:46:13;4.70;;;1.60;;
22967;SDS011;11650;48.106;-1.696;2023-07-29T14:48:38;5.05;;;1.73;;
22967;SDS011;11650;48.106;-1.696;2023-07-29T14:51:04;4.78;;;1.55;;